createdAt,value
2024-05-09T00:00:53.404Z,17.83
2024-05-09T00:03:21.733Z,17.87
2024-05-09T00:05:49.978Z,17.86
2024-05-09T00:08:18.351Z,17.89
2024-05-09T00:10:49.836Z,17.88
2024-05-09T00:13:18.171Z,17.90
2024-05-09T00:15:46.336Z,17.89
2024-05-09T00:18:14.662Z,17.85
2024-05-09T00:20:43.319Z,17.76
2024-05-09T00:23:12.411Z,17.71
2024-05-09T00:25:42.661Z,17.65
2024-05-09T00:28:13.224Z,17.68
2024-05-09T00:30:41.468Z,17.71
2024-05-09T00:33:11.034Z,17.69
2024-05-09T00:35:40.059Z,17.71
2024-05-09T00:38:08.432Z,17.72
2024-05-09T00:40:42.174Z,17.62
2024-05-09T00:43:12.290Z,17.60
2024-05-09T00:45:41.052Z,17.58
2024-05-09T00:48:10.652Z,17.52
2024-05-09T00:50:42.406Z,17.55
2024-05-09T00:53:15.242Z,17.57
2024-05-09T00:55:43.390Z,17.54
2024-05-09T00:58:11.410Z,17.53
2024-05-09T01:00:41.101Z,17.54
2024-05-09T01:03:12.528Z,17.47
2024-05-09T01:05:43.306Z,17.45
2024-05-09T01:08:12.257Z,17.38
2024-05-09T01:10:43.881Z,17.43
2024-05-09T01:13:14.107Z,17.43
2024-05-09T01:15:42.976Z,17.44
2024-05-09T01:18:14.358Z,17.42
2024-05-09T01:20:45.193Z,17.43
2024-05-09T01:23:15.718Z,17.48
2024-05-09T01:25:45.628Z,17.47
2024-05-09T01:28:13.774Z,17.55
2024-05-09T01:30:41.942Z,17.62
2024-05-09T01:33:11.662Z,17.65
2024-05-09T01:35:42.310Z,17.70
2024-05-09T01:38:14.398Z,17.73
2024-05-09T01:40:42.646Z,17.74
2024-05-09T01:43:12.033Z,17.77
2024-05-09T01:45:41.019Z,17.83
2024-05-09T01:48:09.631Z,17.87
2024-05-09T01:50:41.611Z,17.90
2024-05-09T01:53:11.838Z,17.89
2024-05-09T01:55:40.566Z,17.89
2024-05-09T01:58:09.885Z,17.91
2024-05-09T02:00:42.568Z,17.92
2024-05-09T02:03:15.400Z,17.91
2024-05-09T02:05:46.157Z,17.93
2024-05-09T02:08:16.741Z,17.87
2024-05-09T02:10:45.553Z,17.86
2024-05-09T02:13:13.504Z,17.77
2024-05-09T02:15:41.506Z,17.83
2024-05-09T02:18:09.223Z,17.84
2024-05-09T02:20:39.137Z,17.82
2024-05-09T02:23:07.522Z,17.75
2024-05-09T02:25:36.393Z,17.63
2024-05-09T02:28:04.982Z,17.56
2024-05-09T02:30:39.587Z,17.51
2024-05-09T02:33:12.823Z,17.51
2024-05-09T02:35:41.864Z,17.53
2024-05-09T02:38:13.598Z,17.54
2024-05-09T02:40:41.997Z,17.51
2024-05-09T02:43:11.062Z,17.47
2024-05-09T02:46:02.543Z,17.47
2024-05-09T02:48:33.897Z,17.46
2024-05-09T02:51:02.757Z,17.46
2024-05-09T02:53:31.237Z,17.44
2024-05-09T02:55:59.702Z,17.36
2024-05-09T02:58:27.805Z,17.28
2024-05-09T03:00:56.251Z,17.24
2024-05-09T03:03:24.495Z,17.23
2024-05-09T03:05:53.521Z,17.26
2024-05-09T03:08:21.411Z,17.33
2024-05-09T03:10:49.525Z,17.34
2024-05-09T03:13:17.377Z,17.35
2024-05-09T03:15:46.147Z,17.39
2024-05-09T03:18:14.242Z,17.42
2024-05-09T03:20:44.427Z,17.42
2024-05-09T03:23:12.401Z,17.40
2024-05-09T03:25:40.938Z,17.43
2024-05-09T03:28:08.916Z,17.39
2024-05-09T03:30:41.871Z,17.36
2024-05-09T03:33:19.261Z,17.33
2024-05-09T03:35:49.526Z,17.22
2024-05-09T03:38:17.734Z,17.11
2024-05-09T03:41:09.188Z,17.12
2024-05-09T03:43:38.624Z,17.16
2024-05-09T03:46:06.640Z,17.15
2024-05-09T03:48:37.783Z,17.19
2024-05-09T03:51:06.795Z,17.22
2024-05-09T03:53:34.773Z,17.25
2024-05-09T03:56:03.996Z,17.26
2024-05-09T03:58:32.570Z,17.30
2024-05-09T04:01:00.907Z,17.25
2024-05-09T04:03:29.101Z,17.26
2024-05-09T04:05:56.842Z,17.17
2024-05-09T04:08:24.810Z,17.16
2024-05-09T04:10:52.858Z,17.16
2024-05-09T04:13:23.464Z,17.18
2024-05-09T04:15:51.594Z,17.22
2024-05-09T04:18:19.760Z,17.22
2024-05-09T04:20:47.552Z,17.18
2024-05-09T04:23:15.779Z,17.19
2024-05-09T04:25:44.747Z,17.25
2024-05-09T04:28:13.070Z,17.28
2024-05-09T04:30:42.221Z,17.27
2024-05-09T04:33:12.466Z,17.32
2024-05-09T04:35:43.443Z,17.39
2024-05-09T04:38:12.242Z,17.45
2024-05-09T04:40:40.670Z,17.45
2024-05-09T04:43:14.548Z,17.48
2024-05-09T04:45:42.891Z,17.54
2024-05-09T04:48:11.392Z,17.56
2024-05-09T04:50:40.160Z,17.63
2024-05-09T04:53:09.912Z,17.64
2024-05-09T04:55:39.610Z,17.70
2024-05-09T04:58:11.067Z,17.64
2024-05-09T05:00:40.772Z,17.66
2024-05-09T05:03:14.082Z,17.72
2024-05-09T05:05:45.062Z,17.83
2024-05-09T05:13:41.687Z,18.02
2024-05-09T05:16:10.771Z,18.00
2024-05-09T05:21:15.660Z,18.17
2024-05-09T05:23:44.507Z,18.08
2024-05-09T05:26:13.379Z,18.16
2024-05-09T05:28:41.854Z,18.24
2024-05-09T05:33:45.806Z,18.42
2024-05-09T05:36:14.628Z,18.48
2024-05-09T05:41:24.580Z,18.65
2024-05-09T05:43:52.786Z,18.71
2024-05-09T05:49:16.960Z,18.93
2024-05-09T05:54:26.414Z,19.03
2024-05-09T05:59:29.548Z,19.21
2024-05-09T06:10:26.288Z,19.39
2024-05-09T06:27:22.601Z,19.97
2024-05-09T06:29:50.914Z,20.07
2024-05-09T06:32:19.296Z,20.17
2024-05-09T06:34:47.563Z,20.22
2024-05-09T06:37:15.860Z,20.27
2024-05-09T06:39:44.028Z,20.31
2024-05-09T06:42:12.002Z,20.36
2024-05-09T06:44:40.328Z,20.41
2024-05-09T06:47:08.602Z,20.50
2024-05-09T06:49:38.571Z,20.61
2024-05-09T06:52:07.600Z,20.68
2024-05-09T06:54:35.316Z,20.84
2024-05-09T06:59:37.536Z,21.14
2024-05-09T07:02:05.970Z,21.20
2024-05-09T07:04:34.649Z,21.33
2024-05-09T07:07:04.882Z,21.45
2024-05-09T07:09:33.067Z,21.53
2024-05-09T07:12:01.483Z,21.56
2024-05-09T07:14:30.518Z,21.59
2024-05-09T07:16:58.740Z,21.69
2024-05-09T07:19:27.132Z,21.85
2024-05-09T07:21:55.504Z,21.89
2024-05-09T07:24:24.337Z,22.07
2024-05-09T07:26:52.504Z,22.21
2024-05-09T07:29:21.603Z,22.29
2024-05-09T07:31:50.572Z,22.33
2024-05-09T07:34:19.078Z,22.38
2024-05-09T07:36:47.154Z,22.64
2024-05-09T07:39:15.247Z,22.82
2024-05-09T07:41:43.510Z,22.99
2024-05-09T07:44:11.713Z,23.24
2024-05-09T07:47:47.702Z,23.42
2024-05-09T07:53:22.113Z,23.79
2024-05-09T07:54:48.119Z,23.95
2024-05-09T07:57:16.629Z,24.01
2024-05-09T07:59:44.878Z,23.99
2024-05-09T08:02:13.660Z,24.05
2024-05-09T08:04:42.635Z,23.96
2024-05-09T08:07:11.356Z,24.02
2024-05-09T08:09:40.080Z,23.78
2024-05-09T08:12:09.615Z,23.75
2024-05-09T08:14:37.958Z,23.51
2024-05-09T08:17:06.880Z,23.39
2024-05-09T08:19:36.444Z,23.33
2024-05-09T08:22:09.381Z,23.37
2024-05-09T08:24:37.043Z,23.53
2024-05-09T08:27:06.309Z,23.47
2024-05-09T08:29:34.240Z,23.52
2024-05-09T08:32:02.767Z,23.41
2024-05-09T08:34:31.313Z,23.34
2024-05-09T08:37:01.769Z,23.45
2024-05-09T08:39:33.906Z,23.53
2024-05-09T08:42:01.668Z,23.56
2024-05-09T08:44:29.488Z,23.67
2024-05-09T08:46:57.593Z,23.70
2024-05-09T08:49:26.322Z,23.76
2024-05-09T08:51:55.080Z,23.88
2024-05-09T08:54:23.405Z,23.89
2024-05-09T08:56:51.539Z,23.88
2024-05-09T08:59:26.166Z,23.89
2024-05-09T09:01:53.492Z,23.85
2024-05-09T09:04:22.262Z,23.71
2024-05-09T09:06:50.988Z,23.89
2024-05-09T09:09:20.914Z,23.89
2024-05-09T09:11:49.033Z,23.99
2024-05-09T09:14:17.558Z,23.84
2024-05-09T09:16:46.493Z,23.98
2024-05-09T09:19:15.069Z,24.09
2024-05-09T09:21:43.653Z,24.14
2024-05-09T09:24:11.711Z,24.24
2024-05-09T09:26:39.592Z,24.23
2024-05-09T09:29:07.740Z,24.21
2024-05-09T09:31:37.400Z,24.14
2024-05-09T09:34:09.434Z,24.23
2024-05-09T09:36:37.051Z,24.29
2024-05-09T09:39:03.885Z,24.14
2024-05-09T09:41:32.314Z,24.05
2024-05-09T09:44:00.327Z,23.97
2024-05-09T09:46:29.020Z,24.16
2024-05-09T09:48:57.102Z,24.36
2024-05-09T09:51:26.007Z,24.44
2024-05-09T09:53:54.545Z,24.49
2024-05-09T09:56:22.947Z,24.45
2024-05-09T09:58:53.710Z,24.43
2024-05-09T10:01:21.570Z,24.34
2024-05-09T10:03:49.514Z,24.23
2024-05-09T10:06:17.316Z,24.11
2024-05-09T10:08:46.681Z,24.22
2024-05-09T10:11:14.911Z,24.35
2024-05-09T10:13:43.367Z,24.30
2024-05-09T10:16:12.701Z,24.33
2024-05-09T10:18:40.830Z,24.59
2024-05-09T10:21:21.138Z,24.64
2024-05-09T10:24:03.335Z,24.67
2024-05-09T10:26:35.442Z,24.68
2024-05-09T10:29:17.063Z,24.89
2024-05-09T10:31:45.110Z,25.01
2024-05-09T10:34:22.891Z,25.15
2024-05-09T10:36:56.418Z,25.09
2024-05-09T10:39:26.952Z,25.31
2024-05-09T10:41:54.707Z,25.31
2024-05-09T10:44:22.317Z,25.26
2024-05-09T10:46:50.770Z,25.15
2024-05-09T10:49:19.671Z,25.22
2024-05-09T10:51:48.223Z,25.32
2024-05-09T10:54:16.429Z,25.70
2024-05-09T10:56:44.143Z,25.90
2024-05-09T10:59:11.577Z,26.07
2024-05-09T11:01:38.720Z,26.21
2024-05-09T11:04:07.318Z,26.22
2024-05-09T11:06:38.249Z,26.19
2024-05-09T11:09:06.222Z,26.06
2024-05-09T11:11:34.372Z,26.18
2024-05-09T11:14:01.825Z,26.46
2024-05-09T11:16:30.398Z,26.64
2024-05-09T11:18:59.020Z,26.68
2024-05-09T11:21:27.342Z,26.54
2024-05-09T11:23:55.018Z,26.57
2024-05-09T11:26:25.175Z,26.58
2024-05-09T11:28:53.139Z,26.76
2024-05-09T11:31:21.886Z,27.05
2024-05-09T11:33:50.396Z,27.10
2024-05-09T11:36:18.106Z,27.15
2024-05-09T11:38:46.141Z,27.16
2024-05-09T11:41:20.184Z,27.02
2024-05-09T11:43:48.305Z,27.16
2024-05-09T11:46:16.620Z,27.07
2024-05-09T11:48:47.420Z,27.36
2024-05-09T11:51:15.629Z,27.74
2024-05-09T11:53:44.151Z,28.01
2024-05-09T11:56:12.210Z,28.43
2024-05-09T11:58:41.937Z,28.40
2024-05-09T12:01:10.445Z,28.52
2024-05-09T12:03:38.729Z,28.81
2024-05-09T12:06:07.088Z,29.22
2024-05-09T12:08:35.377Z,29.84
2024-05-09T12:11:03.305Z,29.86
2024-05-09T12:13:31.733Z,29.90
2024-05-09T12:16:01.010Z,30.14
2024-05-09T12:18:28.762Z,30.41
2024-05-09T12:20:56.655Z,30.37
2024-05-09T12:23:24.596Z,30.51
2024-05-09T12:25:52.641Z,30.43
2024-05-09T12:28:20.829Z,30.50
2024-05-09T12:30:49.920Z,30.32
2024-05-09T12:33:20.047Z,30.14
2024-05-09T12:35:50.724Z,29.97
2024-05-09T12:38:18.606Z,29.75
2024-05-09T12:40:46.331Z,29.57
2024-05-09T12:43:14.784Z,29.56
2024-05-09T12:45:43.202Z,29.72
2024-05-09T12:48:12.481Z,29.91
2024-05-09T12:50:42.064Z,30.19
2024-05-09T12:53:10.632Z,30.40
2024-05-09T12:55:45.043Z,30.53
2024-05-09T12:58:23.061Z,30.79
2024-05-09T13:00:52.622Z,31.23
2024-05-09T13:03:21.044Z,31.37
2024-05-09T13:05:49.722Z,31.77
2024-05-09T13:08:17.839Z,32.04
2024-05-09T13:10:46.009Z,32.24
2024-05-09T13:13:14.371Z,32.24
2024-05-09T13:15:42.252Z,32.64
2024-05-09T13:18:10.826Z,33.05
2024-05-09T13:20:39.101Z,33.15
2024-05-09T13:23:08.200Z,33.14
2024-05-09T13:25:39.631Z,33.51
2024-05-09T13:28:08.473Z,33.65
2024-05-09T13:30:40.832Z,33.82
2024-05-09T13:33:12.871Z,33.40
2024-05-09T13:35:47.610Z,33.31
2024-05-09T13:38:21.562Z,33.51
2024-05-09T13:40:51.778Z,33.46
2024-05-09T13:43:21.301Z,33.30
2024-05-09T13:45:49.460Z,33.74
2024-05-09T13:48:18.050Z,33.85
2024-05-09T13:50:46.409Z,33.60
2024-05-09T13:53:14.727Z,33.42
2024-05-09T13:55:42.749Z,33.90
2024-05-09T13:58:10.904Z,33.56
2024-05-09T14:00:46.334Z,33.44
2024-05-09T14:03:18.673Z,33.49
2024-05-09T14:05:51.292Z,33.71
2024-05-09T14:08:20.568Z,33.06
2024-05-09T14:10:49.715Z,32.84
2024-05-09T14:13:18.879Z,33.02
2024-05-09T14:15:47.669Z,32.69
2024-05-09T14:18:15.551Z,32.30
2024-05-09T14:20:44.076Z,31.90
2024-05-09T14:23:15.127Z,32.36
2024-05-09T14:25:44.060Z,32.99
2024-05-09T14:28:13.665Z,33.89
2024-05-09T14:30:43.005Z,34.57
2024-05-09T14:33:11.279Z,34.94
2024-05-09T14:35:39.717Z,35.24
2024-05-09T14:38:09.102Z,34.60
2024-05-09T14:40:44.057Z,33.84
2024-05-09T14:43:13.459Z,34.04
2024-05-09T14:45:41.765Z,33.45
2024-05-09T14:48:08.952Z,32.81
2024-05-09T14:50:39.999Z,32.08
2024-05-09T14:53:12.180Z,31.56
2024-05-09T14:55:41.930Z,31.22
2024-05-09T14:58:11.858Z,31.04
2024-05-09T15:00:47.762Z,31.17
2024-05-09T15:03:22.126Z,31.27
2024-05-09T15:05:51.670Z,31.29
2024-05-09T15:08:21.231Z,30.76
2024-05-09T15:10:50.429Z,30.43
2024-05-09T15:13:19.589Z,29.94
2024-05-09T15:15:47.589Z,29.67
2024-05-09T15:18:15.705Z,29.58
2024-05-09T15:20:44.999Z,29.77
2024-05-09T15:23:13.434Z,29.81
2024-05-09T15:25:41.702Z,29.62
2024-05-09T15:28:09.928Z,29.37
2024-05-09T15:30:39.614Z,29.47
2024-05-09T15:33:08.797Z,29.71
2024-05-09T15:35:41.213Z,30.25
2024-05-09T15:38:08.674Z,30.22
2024-05-09T15:40:40.025Z,29.94
2024-05-09T15:43:11.350Z,29.58
2024-05-09T15:45:40.767Z,29.27
2024-05-09T15:48:09.591Z,29.09
2024-05-09T15:50:41.210Z,28.81
2024-05-09T15:53:10.483Z,28.72
2024-05-09T15:55:39.406Z,28.56
2024-05-09T15:58:07.633Z,28.45
2024-05-09T16:00:39.798Z,28.59
2024-05-09T16:03:11.284Z,28.70
2024-05-09T16:05:40.755Z,28.72
2024-05-09T16:08:08.704Z,28.42
2024-05-09T16:10:43.191Z,28.03
2024-05-09T16:13:12.554Z,27.58
2024-05-09T16:15:41.003Z,27.46
2024-05-09T16:18:09.186Z,27.37
2024-05-09T16:20:40.450Z,27.19
2024-05-09T16:23:10.305Z,26.99
2024-05-09T16:25:38.519Z,26.82
2024-05-09T16:28:10.458Z,26.67
2024-05-09T16:30:42.073Z,26.83
2024-05-09T16:33:11.816Z,27.09
2024-05-09T16:35:40.196Z,27.17
2024-05-09T16:38:10.708Z,27.36
2024-05-09T16:40:40.954Z,27.28
2024-05-09T16:43:32.396Z,27.29
2024-05-09T16:46:00.776Z,27.16
2024-05-09T16:48:28.882Z,26.97
2024-05-09T16:50:57.349Z,26.70
2024-05-09T16:53:25.806Z,26.55
2024-05-09T16:55:53.670Z,26.41
2024-05-09T16:58:22.286Z,26.22
2024-05-09T17:00:51.221Z,26.03
2024-05-09T17:03:20.678Z,25.86
2024-05-09T17:05:49.041Z,25.75
2024-05-09T17:08:20.476Z,25.73
2024-05-09T17:10:49.909Z,25.90
2024-05-09T17:13:19.342Z,26.14
2024-05-09T17:15:47.610Z,26.09
2024-05-09T17:18:15.365Z,25.85
2024-05-09T17:20:43.439Z,25.64
2024-05-09T17:23:14.727Z,25.43
2024-05-09T17:25:42.478Z,25.29
2024-05-09T17:28:10.688Z,25.21
2024-05-09T17:30:40.363Z,25.18
2024-05-09T17:33:10.296Z,25.09
2024-05-09T17:35:39.103Z,24.97
2024-05-09T17:38:10.374Z,24.89
2024-05-09T17:43:14.289Z,24.69
2024-05-09T17:45:42.630Z,24.66
2024-05-09T17:48:11.412Z,24.61
2024-05-09T17:50:41.036Z,24.62
2024-05-09T17:53:10.240Z,24.57
2024-05-09T17:55:38.311Z,24.69
2024-05-09T17:58:10.156Z,24.74
2024-05-09T18:00:41.360Z,24.70
2024-05-09T18:03:11.953Z,24.67
2024-05-09T18:05:42.327Z,24.97
2024-05-09T18:08:11.516Z,25.22
2024-05-09T18:10:41.074Z,24.94
2024-05-09T18:13:09.652Z,24.63
2024-05-09T18:15:38.202Z,24.28
2024-05-09T18:18:07.090Z,24.01
2024-05-09T18:20:42.958Z,23.81
2024-05-09T18:23:15.630Z,23.58
2024-05-09T18:25:44.784Z,23.45
2024-05-09T18:28:12.891Z,23.27
2024-05-09T18:30:40.938Z,23.19
2024-05-09T18:33:11.536Z,23.09
2024-05-09T18:35:40.821Z,22.97
2024-05-09T18:38:08.958Z,22.90
2024-05-09T18:40:38.422Z,22.81
2024-05-09T18:43:08.955Z,22.82
2024-05-09T18:45:38.823Z,22.82
2024-05-09T18:48:12.474Z,22.83
2024-05-09T18:50:41.407Z,22.83
2024-05-09T18:53:10.342Z,22.81
2024-05-09T18:55:39.183Z,22.77
2024-05-09T18:58:07.187Z,22.69
2024-05-09T19:00:38.778Z,22.63
2024-05-09T19:03:11.594Z,22.60
2024-05-09T19:05:43.527Z,22.58
2024-05-09T19:08:12.770Z,22.55
2024-05-09T19:10:40.837Z,22.51
2024-05-09T19:13:29.927Z,22.46
2024-05-09T19:15:58.346Z,22.39
2024-05-09T19:18:27.184Z,22.33
2024-05-09T19:20:55.529Z,22.28
2024-05-09T19:23:23.983Z,22.25
2024-05-09T19:25:51.651Z,22.21
2024-05-09T19:28:20.031Z,22.18
2024-05-09T19:30:48.183Z,22.08
2024-05-09T19:33:16.160Z,21.98
2024-05-09T19:35:44.313Z,21.78
2024-05-09T19:38:12.897Z,21.57
2024-05-09T19:40:40.764Z,21.38
2024-05-09T19:43:08.686Z,21.12
2024-05-09T19:45:37.026Z,20.89
2024-05-09T19:48:06.021Z,20.79
2024-05-09T19:50:41.463Z,20.66
2024-05-09T19:53:12.125Z,20.56
2024-05-09T19:55:42.528Z,20.49
2024-05-09T19:58:11.920Z,20.42
2024-05-09T20:00:42.611Z,20.35
2024-05-09T20:03:40.956Z,20.35
2024-05-09T20:06:09.442Z,20.31
2024-05-09T20:08:39.257Z,20.28
2024-05-09T20:11:06.828Z,20.28
2024-05-09T20:13:34.773Z,20.27
2024-05-09T20:16:02.804Z,20.29
2024-05-09T20:18:31.096Z,20.27
2024-05-09T20:21:00.550Z,20.27
2024-05-09T20:23:29.453Z,20.29
2024-05-09T20:25:57.597Z,20.35
2024-05-09T20:28:26.550Z,20.41
2024-05-09T20:30:55.204Z,20.45
2024-05-09T20:33:23.800Z,20.38
2024-05-09T20:36:01.621Z,20.36
2024-05-09T20:38:30.536Z,20.37
2024-05-09T20:40:58.371Z,20.40
2024-05-09T20:43:28.947Z,20.34
2024-05-09T20:45:57.001Z,20.30
2024-05-09T20:48:24.905Z,20.27
2024-05-09T20:50:53.357Z,20.22
2024-05-09T20:53:21.411Z,20.17
2024-05-09T20:55:49.861Z,20.17
2024-05-09T20:58:18.253Z,20.15
2024-05-09T21:00:46.936Z,20.13
2024-05-09T21:03:16.880Z,20.14
2024-05-09T21:05:45.574Z,20.14
2024-05-09T21:08:13.672Z,20.16
2024-05-09T21:10:44.918Z,20.14
2024-05-09T21:13:13.409Z,20.12
2024-05-09T21:15:41.349Z,20.14
2024-05-09T21:18:09.610Z,20.16
2024-05-09T21:20:37.782Z,20.17
2024-05-09T21:23:06.426Z,20.15
2024-05-09T21:25:35.177Z,20.14
2024-05-09T21:28:03.948Z,20.11
2024-05-09T21:30:41.008Z,20.10
2024-05-09T21:33:12.454Z,20.05
2024-05-09T21:35:42.841Z,20.05
2024-05-09T21:38:11.206Z,20.01
2024-05-09T21:40:39.515Z,19.95
2024-05-09T21:43:07.187Z,19.91
2024-05-09T21:45:35.255Z,19.85
2024-05-09T21:48:09.160Z,19.83
2024-05-09T21:50:41.029Z,19.82
2024-05-09T21:53:13.890Z,19.78
2024-05-09T21:56:03.717Z,19.76
2024-05-09T21:58:32.395Z,19.75
2024-05-09T22:01:00.791Z,19.72
2024-05-09T22:03:29.291Z,19.70
2024-05-09T22:05:57.329Z,19.67
2024-05-09T22:08:25.960Z,19.65
2024-05-09T22:10:54.521Z,19.63
2024-05-09T22:13:22.135Z,19.59
2024-05-09T22:15:50.854Z,19.58
2024-05-09T22:18:19.237Z,19.59
2024-05-09T22:20:47.618Z,19.59
2024-05-09T22:23:16.067Z,19.58
2024-05-09T22:25:47.756Z,19.60
2024-05-09T22:28:16.360Z,19.58
2024-05-09T22:30:46.230Z,19.62
2024-05-09T22:33:15.154Z,19.64
2024-05-09T22:35:43.476Z,19.66
2024-05-09T22:38:11.416Z,19.71
2024-05-09T22:40:47.170Z,19.75
2024-05-09T22:43:21.343Z,19.85
2024-05-09T22:45:51.299Z,19.95
2024-05-09T22:48:20.216Z,20.00
2024-05-09T22:50:48.710Z,20.05
2024-05-09T22:53:16.337Z,20.11
2024-05-09T22:55:44.766Z,20.19
2024-05-09T22:58:12.631Z,20.22
2024-05-09T23:00:40.783Z,20.23
2024-05-09T23:03:09.058Z,20.28
2024-05-09T23:05:37.569Z,20.30
2024-05-09T23:08:08.994Z,20.30
2024-05-09T23:10:38.230Z,20.28
2024-05-09T23:13:09.802Z,20.28
2024-05-09T23:15:40.679Z,20.27
2024-05-09T23:18:09.287Z,20.26
2024-05-09T23:20:39.903Z,20.25
2024-05-09T23:23:10.038Z,20.23
2024-05-09T23:25:39.506Z,20.25
2024-05-09T23:28:08.606Z,20.27
2024-05-09T23:30:39.638Z,20.27
2024-05-09T23:33:12.680Z,20.27
2024-05-09T23:35:42.160Z,20.26
2024-05-09T23:38:10.062Z,20.27
2024-05-09T23:40:40.497Z,20.27
2024-05-09T23:43:11.641Z,20.31
2024-05-09T23:45:40.718Z,20.34
2024-05-09T23:48:10.731Z,20.35
2024-05-09T23:50:40.211Z,20.37
2024-05-09T23:53:09.529Z,20.37
2024-05-09T23:55:38.554Z,20.35
2024-05-09T23:58:07.500Z,20.35
